Hauptseite
METAR-TAF:

METAR-TAF

Flughäfen :

Flughafen Marka International

Amman, Jordanien

Breite: 31-59N, Länge: 035-59E, Höhe: 767 m

Beobachtung

Neuester Wetterbericht von vor 8 Minuten, um 03:00 UTC
Wind 4 kt aus West/Südwest
Temperatur 19°C
Luftfeuchtigkeit 73%
Luftdruck 1010 hPa
Sichtweite: 5000 m
trockener Dunst

METAR: OJAM 200300Z 25004KT 5000 HZ NSC 19/14 Q1010 NOSIG

Zeit: 06:08 (03:08 UTC)

Prognose

Neuester Wetterbericht von vor 4 Stunden und 18 Minuten, um 22:50 UTC
Gültige Prognose vom 20 um 00 UTC bis 21 um 06 UTC
Wind 8 kt aus West/Nordwest
Sichtweite: 5000 m
trockener Dunst

TAF: OJAM 192250Z 2000/2106 29008KT 5000 HZ NSC

Wetterbeobachtungen und Prognosen von mehr als 4000 Flughäfen (METAR und TAF Bericht).

Die verfügbaren Stationen werden durch gelbe und rote Markierungen auf der Karte dargestellt.

Führen Sie die Maus auf sie, um den Namen der Station zu sehen.

Darauf klicken, um die Beobachtung von Wetterbeobachtungen und Prognosen zu sehen.

Um die Karte zu ändern : klicken Sie auf den grünen Tasten mit einem schwarzen Kreuz Zum Vergrößern, auf den grünen Button mit einem Gedankenstrich zu verkleinern, oder auf die grünen Pfeile für benachbarte Karten.


METAR-TAF: